sensor_id;sensor_type;location;lat;lon;timestamp;temperature;humidity
75961;SHT30;64644;48.914;2.254;2023-04-01T00:00:33;13.13;66.26
75961;SHT30;64644;48.914;2.254;2023-04-01T00:02:58;13.14;66.38
75961;SHT30;64644;48.914;2.254;2023-04-01T00:05:23;13.16;66.20
75961;SHT30;64644;48.914;2.254;2023-04-01T00:07:52;13.16;66.18
75961;SHT30;64644;48.914;2.254;2023-04-01T00:10:17;13.13;66.24
75961;SHT30;64644;48.914;2.254;2023-04-01T00:12:43;13.16;66.14
75961;SHT30;64644;48.914;2.254;2023-04-01T00:15:11;13.17;66.16
75961;SHT30;64644;48.914;2.254;2023-04-01T00:17:37;13.17;66.27
75961;SHT30;64644;48.914;2.254;2023-04-01T00:20:04;13.17;66.66
75961;SHT30;64644;48.914;2.254;2023-04-01T00:22:30;13.17;66.63
75961;SHT30;64644;48.914;2.254;2023-04-01T00:24:55;13.17;66.97
75961;SHT30;64644;48.914;2.254;2023-04-01T00:27:20;13.11;67.55
75961;SHT30;64644;48.914;2.254;2023-04-01T00:29:46;13.10;67.20
75961;SHT30;64644;48.914;2.254;2023-04-01T00:32:13;13.09;67.40
75961;SHT30;64644;48.914;2.254;2023-04-01T00:34:39;13.06;67.54
75961;SHT30;64644;48.914;2.254;2023-04-01T00:37:06;13.04;67.63
75961;SHT30;64644;48.914;2.254;2023-04-01T00:39:32;13.03;67.99
75961;SHT30;64644;48.914;2.254;2023-04-01T00:41:58;13.00;67.98
75961;SHT30;64644;48.914;2.254;2023-04-01T00:44:34;13.00;68.20
75961;SHT30;64644;48.914;2.254;2023-04-01T00:47:00;12.96;68.30
75961;SHT30;64644;48.914;2.254;2023-04-01T00:49:30;12.96;68.56
75961;SHT30;64644;48.914;2.254;2023-04-01T00:52:00;12.93;68.43
75961;SHT30;64644;48.914;2.254;2023-04-01T00:54:26;12.91;68.78
75961;SHT30;64644;48.914;2.254;2023-04-01T00:56:54;12.89;68.55
75961;SHT30;64644;48.914;2.254;2023-04-01T00:59:27;12.88;68.68
75961;SHT30;64644;48.914;2.254;2023-04-01T01:01:53;12.88;68.78
75961;SHT30;64644;48.914;2.254;2023-04-01T01:04:24;12.85;68.98
75961;SHT30;64644;48.914;2.254;2023-04-01T01:06:59;12.86;69.10
75961;SHT30;64644;48.914;2.254;2023-04-01T01:09:39;12.81;69.37
75961;SHT30;64644;48.914;2.254;2023-04-01T01:12:36;12.81;69.60
75961;SHT30;64644;48.914;2.254;2023-04-01T01:15:07;12.78;69.49
75961;SHT30;64644;48.914;2.254;2023-04-01T01:20:29;12.76;69.75
75961;SHT30;64644;48.914;2.254;2023-04-01T01:31:37;12.78;69.61
75961;SHT30;64644;48.914;2.254;2023-04-01T01:36:57;12.82;69.38
75961;SHT30;64644;48.914;2.254;2023-04-01T01:39:26;12.83;69.32
75961;SHT30;64644;48.914;2.254;2023-04-01T01:41:57;12.83;69.38
75961;SHT30;64644;48.914;2.254;2023-04-01T01:44:24;12.83;69.37
75961;SHT30;64644;48.914;2.254;2023-04-01T01:46:50;12.83;69.65
75961;SHT30;64644;48.914;2.254;2023-04-01T01:49:17;12.83;69.73
75961;SHT30;64644;48.914;2.254;2023-04-01T01:51:43;12.83;69.96
75961;SHT30;64644;48.914;2.254;2023-04-01T01:54:17;12.82;70.27
75961;SHT30;64644;48.914;2.254;2023-04-01T01:56:45;12.82;70.30
75961;SHT30;64644;48.914;2.254;2023-04-01T01:59:13;12.78;70.29
75961;SHT30;64644;48.914;2.254;2023-04-01T02:01:42;12.78;70.43
75961;SHT30;64644;48.914;2.254;2023-04-01T02:04:10;12.74;70.42
75961;SHT30;64644;48.914;2.254;2023-04-01T02:06:39;12.76;70.55
75961;SHT30;64644;48.914;2.254;2023-04-01T02:09:07;12.72;71.12
75961;SHT30;64644;48.914;2.254;2023-04-01T02:11:52;12.72;70.71
75961;SHT30;64644;48.914;2.254;2023-04-01T02:14:25;12.71;71.15
75961;SHT30;64644;48.914;2.254;2023-04-01T02:16:55;12.74;71.07
75961;SHT30;64644;48.914;2.254;2023-04-01T02:19:26;12.69;70.96
75961;SHT30;64644;48.914;2.254;2023-04-01T02:21:56;12.69;71.21
75961;SHT30;64644;48.914;2.254;2023-04-01T02:24:25;12.65;71.11
75961;SHT30;64644;48.914;2.254;2023-04-01T02:26:51;12.65;71.20
75961;SHT30;64644;48.914;2.254;2023-04-01T02:29:20;12.65;71.04
75961;SHT30;64644;48.914;2.254;2023-04-01T02:31:46;12.65;71.01
75961;SHT30;64644;48.914;2.254;2023-04-01T02:34:13;12.66;70.89
75961;SHT30;64644;48.914;2.254;2023-04-01T02:36:38;12.66;70.87
75961;SHT30;64644;48.914;2.254;2023-04-01T02:39:05;12.69;70.73
75961;SHT30;64644;48.914;2.254;2023-04-01T02:41:31;12.72;70.57
75961;SHT30;64644;48.914;2.254;2023-04-01T02:43:56;12.75;70.61
75961;SHT30;64644;48.914;2.254;2023-04-01T02:46:24;12.79;70.27
75961;SHT30;64644;48.914;2.254;2023-04-01T02:48:49;12.85;70.09
75961;SHT30;64644;48.914;2.254;2023-04-01T02:51:14;12.85;69.98
75961;SHT30;64644;48.914;2.254;2023-04-01T02:53:40;12.89;69.86
75961;SHT30;64644;48.914;2.254;2023-04-01T02:56:05;12.91;69.75
75961;SHT30;64644;48.914;2.254;2023-04-01T02:58:31;12.93;69.72
75961;SHT30;64644;48.914;2.254;2023-04-01T03:00:57;12.97;69.49
75961;SHT30;64644;48.914;2.254;2023-04-01T03:03:23;12.96;69.54
75961;SHT30;64644;48.914;2.254;2023-04-01T03:05:48;13.00;69.38
75961;SHT30;64644;48.914;2.254;2023-04-01T03:08:14;13.02;69.21
75961;SHT30;64644;48.914;2.254;2023-04-01T03:10:39;13.03;69.08
75961;SHT30;64644;48.914;2.254;2023-04-01T03:13:04;13.02;69.01
75961;SHT30;64644;48.914;2.254;2023-04-01T03:15:31;13.03;68.99
75961;SHT30;64644;48.914;2.254;2023-04-01T03:17:56;13.03;69.10
75961;SHT30;64644;48.914;2.254;2023-04-01T03:20:22;13.04;68.99
75961;SHT30;64644;48.914;2.254;2023-04-01T03:22:47;13.04;69.03
75961;SHT30;64644;48.914;2.254;2023-04-01T03:25:12;13.07;68.97
75961;SHT30;64644;48.914;2.254;2023-04-01T03:27:38;13.03;69.04
75961;SHT30;64644;48.914;2.254;2023-04-01T03:30:05;13.03;69.23
75961;SHT30;64644;48.914;2.254;2023-04-01T03:32:30;13.03;69.18
75961;SHT30;64644;48.914;2.254;2023-04-01T03:34:56;13.02;69.38
75961;SHT30;64644;48.914;2.254;2023-04-01T03:37:22;13.04;69.11
75961;SHT30;64644;48.914;2.254;2023-04-01T03:39:47;13.02;69.12
75961;SHT30;64644;48.914;2.254;2023-04-01T03:42:12;13.03;69.17
75961;SHT30;64644;48.914;2.254;2023-04-01T03:44:38;12.99;69.38
75961;SHT30;64644;48.914;2.254;2023-04-01T03:47:03;12.97;69.38
75961;SHT30;64644;48.914;2.254;2023-04-01T03:49:29;13.00;69.31
75961;SHT30;64644;48.914;2.254;2023-04-01T03:51:54;13.00;69.19
75961;SHT30;64644;48.914;2.254;2023-04-01T03:54:19;13.02;69.05
75961;SHT30;64644;48.914;2.254;2023-04-01T03:56:45;13.02;69.00
75961;SHT30;64644;48.914;2.254;2023-04-01T03:59:11;13.00;68.85
75961;SHT30;64644;48.914;2.254;2023-04-01T04:01:37;13.02;68.78
75961;SHT30;64644;48.914;2.254;2023-04-01T04:04:02;13.03;68.77
75961;SHT30;64644;48.914;2.254;2023-04-01T04:06:28;13.04;68.36
75961;SHT30;64644;48.914;2.254;2023-04-01T04:08:53;13.06;68.29
75961;SHT30;64644;48.914;2.254;2023-04-01T04:11:20;13.06;68.23
75961;SHT30;64644;48.914;2.254;2023-04-01T04:13:45;13.06;68.17
75961;SHT30;64644;48.914;2.254;2023-04-01T04:16:13;13.06;68.10
75961;SHT30;64644;48.914;2.254;2023-04-01T04:18:39;13.07;68.02
75961;SHT30;64644;48.914;2.254;2023-04-01T04:21:05;13.09;67.96
75961;SHT30;64644;48.914;2.254;2023-04-01T04:23:31;13.06;67.82
75961;SHT30;64644;48.914;2.254;2023-04-01T04:26:03;13.07;67.74
75961;SHT30;64644;48.914;2.254;2023-04-01T04:28:29;13.09;67.70
75961;SHT30;64644;48.914;2.254;2023-04-01T04:30:55;13.09;67.67
75961;SHT30;64644;48.914;2.254;2023-04-01T04:33:21;13.10;67.59
75961;SHT30;64644;48.914;2.254;2023-04-01T04:35:47;13.13;67.56
75961;SHT30;64644;48.914;2.254;2023-04-01T04:38:13;13.11;67.48
75961;SHT30;64644;48.914;2.254;2023-04-01T04:40:39;13.13;67.47
75961;SHT30;64644;48.914;2.254;2023-04-01T04:43:05;13.14;67.39
75961;SHT30;64644;48.914;2.254;2023-04-01T04:45:30;13.16;67.37
75961;SHT30;64644;48.914;2.254;2023-04-01T04:47:56;13.19;67.33
75961;SHT30;64644;48.914;2.254;2023-04-01T04:50:21;13.20;67.27
75961;SHT30;64644;48.914;2.254;2023-04-01T04:52:47;13.23;67.15
75961;SHT30;64644;48.914;2.254;2023-04-01T04:55:12;13.23;67.10
75961;SHT30;64644;48.914;2.254;2023-04-01T04:57:38;13.21;66.98
75961;SHT30;64644;48.914;2.254;2023-04-01T05:00:04;13.21;66.98
75961;SHT30;64644;48.914;2.254;2023-04-01T05:02:29;13.23;66.71
75961;SHT30;64644;48.914;2.254;2023-04-01T05:04:55;13.17;66.67
75961;SHT30;64644;48.914;2.254;2023-04-01T05:07:20;13.13;66.69
75961;SHT30;64644;48.914;2.254;2023-04-01T05:09:45;13.16;66.66
75961;SHT30;64644;48.914;2.254;2023-04-01T05:12:12;13.17;66.54
75961;SHT30;64644;48.914;2.254;2023-04-01T05:14:38;13.17;66.70
75961;SHT30;64644;48.914;2.254;2023-04-01T05:17:03;13.21;66.60
75961;SHT30;64644;48.914;2.254;2023-04-01T05:19:29;13.17;66.25
75961;SHT30;64644;48.914;2.254;2023-04-01T05:21:54;13.19;66.23
75961;SHT30;64644;48.914;2.254;2023-04-01T05:24:19;13.20;66.16
75961;SHT30;64644;48.914;2.254;2023-04-01T05:26:45;13.17;66.32
75961;SHT30;64644;48.914;2.254;2023-04-01T05:29:10;13.17;66.18
75961;SHT30;64644;48.914;2.254;2023-04-01T05:31:35;13.17;66.11
75961;SHT30;64644;48.914;2.254;2023-04-01T05:34:01;13.16;66.17
75961;SHT30;64644;48.914;2.254;2023-04-01T05:36:26;13.16;66.19
75961;SHT30;64644;48.914;2.254;2023-04-01T05:38:55;13.19;66.21
75961;SHT30;64644;48.914;2.254;2023-04-01T05:41:21;13.21;66.01
75961;SHT30;64644;48.914;2.254;2023-04-01T05:43:46;13.20;65.80
75961;SHT30;64644;48.914;2.254;2023-04-01T05:46:11;13.19;65.97
75961;SHT30;64644;48.914;2.254;2023-04-01T05:48:37;13.21;65.95
75961;SHT30;64644;48.914;2.254;2023-04-01T05:51:03;13.20;65.86
75961;SHT30;64644;48.914;2.254;2023-04-01T05:53:28;13.21;65.71
75961;SHT30;64644;48.914;2.254;2023-04-01T05:55:54;13.21;65.74
75961;SHT30;64644;48.914;2.254;2023-04-01T05:58:19;13.24;65.70
75961;SHT30;64644;48.914;2.254;2023-04-01T06:00:45;13.20;65.62
75961;SHT30;64644;48.914;2.254;2023-04-01T06:03:10;13.24;65.66
75961;SHT30;64644;48.914;2.254;2023-04-01T06:05:40;13.23;65.48
75961;SHT30;64644;48.914;2.254;2023-04-01T06:08:15;13.27;65.39
75961;SHT30;64644;48.914;2.254;2023-04-01T06:11:06;13.26;65.31
75961;SHT30;64644;48.914;2.254;2023-04-01T06:17:01;13.31;65.08
75961;SHT30;64644;48.914;2.254;2023-04-01T06:44:16;13.40;64.45
75961;SHT30;64644;48.914;2.254;2023-04-01T06:46:58;13.41;64.42
75961;SHT30;64644;48.914;2.254;2023-04-01T06:49:44;13.41;64.44
75961;SHT30;64644;48.914;2.254;2023-04-01T06:52:38;13.43;64.12
75961;SHT30;64644;48.914;2.254;2023-04-01T06:55:27;13.48;64.31
75961;SHT30;64644;48.914;2.254;2023-04-01T06:57:58;13.48;63.93
75961;SHT30;64644;48.914;2.254;2023-04-01T07:00:37;13.51;64.05
75961;SHT30;64644;48.914;2.254;2023-04-01T07:03:12;13.53;63.92
75961;SHT30;64644;48.914;2.254;2023-04-01T07:05:39;13.58;63.80
75961;SHT30;64644;48.914;2.254;2023-04-01T07:08:09;13.55;63.77
75961;SHT30;64644;48.914;2.254;2023-04-01T07:13:28;13.57;63.72
75961;SHT30;64644;48.914;2.254;2023-04-01T07:16:18;13.65;63.68
75961;SHT30;64644;48.914;2.254;2023-04-01T07:18:54;13.65;63.56
75961;SHT30;64644;48.914;2.254;2023-04-01T07:21:26;13.71;63.48
75961;SHT30;64644;48.914;2.254;2023-04-01T07:23:57;13.72;63.28
75961;SHT30;64644;48.914;2.254;2023-04-01T07:26:25;13.76;63.11
75961;SHT30;64644;48.914;2.254;2023-04-01T07:28:52;13.81;63.18
75961;SHT30;64644;48.914;2.254;2023-04-01T07:36:39;13.87;62.76
75961;SHT30;64644;48.914;2.254;2023-04-01T07:44:45;13.99;62.42
75961;SHT30;64644;48.914;2.254;2023-04-01T07:47:40;13.96;62.35
75961;SHT30;64644;48.914;2.254;2023-04-01T07:50:13;13.98;62.13
75961;SHT30;64644;48.914;2.254;2023-04-01T07:55:42;14.03;62.29
75961;SHT30;64644;48.914;2.254;2023-04-01T08:04:01;14.10;62.00
75961;SHT30;64644;48.914;2.254;2023-04-01T08:06:41;14.12;61.72
75961;SHT30;64644;48.914;2.254;2023-04-01T08:09:29;14.13;61.76
75961;SHT30;64644;48.914;2.254;2023-04-01T08:12:08;14.14;61.44
75961;SHT30;64644;48.914;2.254;2023-04-01T08:15:18;14.18;61.50
75961;SHT30;64644;48.914;2.254;2023-04-01T08:18:03;14.21;61.60
75961;SHT30;64644;48.914;2.254;2023-04-01T08:23:44;14.18;61.57
75961;SHT30;64644;48.914;2.254;2023-04-01T08:26:36;14.24;61.67
75961;SHT30;64644;48.914;2.254;2023-04-01T08:29:13;14.23;60.94
75961;SHT30;64644;48.914;2.254;2023-04-01T08:31:43;14.21;61.08
75961;SHT30;64644;48.914;2.254;2023-04-01T08:34:19;14.17;60.75
75961;SHT30;64644;48.914;2.254;2023-04-01T08:36:50;14.14;61.20
75961;SHT30;64644;48.914;2.254;2023-04-01T08:39:24;14.14;61.26
75961;SHT30;64644;48.914;2.254;2023-04-01T08:59:09;14.44;61.04
75961;SHT30;64644;48.914;2.254;2023-04-01T09:07:43;14.69;60.37
75961;SHT30;64644;48.914;2.254;2023-04-01T09:18:49;14.97;59.84
75961;SHT30;64644;48.914;2.254;2023-04-01T09:27:13;15.03;59.32
75961;SHT30;64644;48.914;2.254;2023-04-01T09:46:15;15.19;58.54
75961;SHT30;64644;48.914;2.254;2023-04-01T09:49:00;15.27;58.36
75961;SHT30;64644;48.914;2.254;2023-04-01T10:08:59;15.52;55.81
75961;SHT30;64644;48.914;2.254;2023-04-01T10:12:04;15.58;56.61
75961;SHT30;64644;48.914;2.254;2023-04-01T10:29:07;15.82;53.98
75961;SHT30;64644;48.914;2.254;2023-04-01T10:34:48;16.48;52.42
75961;SHT30;64644;48.914;2.254;2023-04-01T10:40:38;16.93;51.01
75961;SHT30;64644;48.914;2.254;2023-04-01T10:43:57;16.94;51.91
75961;SHT30;64644;48.914;2.254;2023-04-01T10:49:24;16.90;50.05
75961;SHT30;64644;48.914;2.254;2023-04-01T10:52:41;16.84;49.76
75961;SHT30;64644;48.914;2.254;2023-04-01T10:55:31;16.82;51.73
75961;SHT30;64644;48.914;2.254;2023-04-01T11:09:26;17.00;48.19
75961;SHT30;64644;48.914;2.254;2023-04-01T11:12:01;17.03;49.83
75961;SHT30;64644;48.914;2.254;2023-04-01T11:29:26;16.92;49.73
75961;SHT30;64644;48.914;2.254;2023-04-01T11:34:49;16.90;48.91
75961;SHT30;64644;48.914;2.254;2023-04-01T11:37:58;16.97;49.45
75961;SHT30;64644;48.914;2.254;2023-04-01T11:40:50;17.09;49.66
75961;SHT30;64644;48.914;2.254;2023-04-01T11:57:53;16.62;49.97
75961;SHT30;64644;48.914;2.254;2023-04-01T12:00:34;16.79;49.99
75961;SHT30;64644;48.914;2.254;2023-04-01T12:14:54;17.27;48.11
75961;SHT30;64644;48.914;2.254;2023-04-01T12:17:36;17.31;47.93
75961;SHT30;64644;48.914;2.254;2023-04-01T12:25:14;17.38;47.35
75961;SHT30;64644;48.914;2.254;2023-04-01T12:30:45;17.54;47.77
75961;SHT30;64644;48.914;2.254;2023-04-01T12:33:52;17.55;46.58
75961;SHT30;64644;48.914;2.254;2023-04-01T12:36:22;17.54;46.99
75961;SHT30;64644;48.914;2.254;2023-04-01T12:44:39;17.42;46.63
75961;SHT30;64644;48.914;2.254;2023-04-01T12:52:58;17.83;45.65
75961;SHT30;64644;48.914;2.254;2023-04-01T12:55:38;17.78;45.83
75961;SHT30;64644;48.914;2.254;2023-04-01T13:00:50;17.58;45.69
75961;SHT30;64644;48.914;2.254;2023-04-01T13:17:57;17.59;47.21
75961;SHT30;64644;48.914;2.254;2023-04-01T13:20:34;17.71;47.34
75961;SHT30;64644;48.914;2.254;2023-04-01T13:25:54;17.97;46.38
75961;SHT30;64644;48.914;2.254;2023-04-01T13:28:27;18.01;46.13
75961;SHT30;64644;48.914;2.254;2023-04-01T13:33:50;18.04;47.03
75961;SHT30;64644;48.914;2.254;2023-04-01T13:41:55;17.90;46.29
75961;SHT30;64644;48.914;2.254;2023-04-01T13:55:44;18.17;46.57
75961;SHT30;64644;48.914;2.254;2023-04-01T14:01:15;18.25;46.27
75961;SHT30;64644;48.914;2.254;2023-04-01T14:09:10;18.07;46.64
75961;SHT30;64644;48.914;2.254;2023-04-01T14:14:29;17.91;46.37
75961;SHT30;64644;48.914;2.254;2023-04-01T14:20:07;17.80;46.86
75961;SHT30;64644;48.914;2.254;2023-04-01T14:28:34;17.80;46.70
75961;SHT30;64644;48.914;2.254;2023-04-01T14:34:09;17.83;46.05
75961;SHT30;64644;48.914;2.254;2023-04-01T14:39:46;17.73;46.63
75961;SHT30;64644;48.914;2.254;2023-04-01T14:47:47;17.59;49.10
75961;SHT30;64644;48.914;2.254;2023-04-01T14:50:20;17.58;49.49
75961;SHT30;64644;48.914;2.254;2023-04-01T14:52:55;17.51;49.91
75961;SHT30;64644;48.914;2.254;2023-04-01T14:55:44;17.42;50.36
75961;SHT30;64644;48.914;2.254;2023-04-01T14:58:16;17.37;51.11
75961;SHT30;64644;48.914;2.254;2023-04-01T15:03:16;17.37;50.79
75961;SHT30;64644;48.914;2.254;2023-04-01T15:05:52;17.39;51.06
75961;SHT30;64644;48.914;2.254;2023-04-01T15:13:56;17.18;51.31
75961;SHT30;64644;48.914;2.254;2023-04-01T15:27:43;16.89;53.73
75961;SHT30;64644;48.914;2.254;2023-04-01T15:30:27;16.86;54.55
75961;SHT30;64644;48.914;2.254;2023-04-01T15:38:36;16.83;54.55
75961;SHT30;64644;48.914;2.254;2023-04-01T15:41:26;16.75;55.22
75961;SHT30;64644;48.914;2.254;2023-04-01T15:43:53;16.65;55.02
75961;SHT30;64644;48.914;2.254;2023-04-01T15:49:27;16.34;56.68
75961;SHT30;64644;48.914;2.254;2023-04-01T15:55:01;16.09;57.17
75961;SHT30;64644;48.914;2.254;2023-04-01T16:00:41;15.86;59.66
75961;SHT30;64644;48.914;2.254;2023-04-01T16:03:23;15.78;58.29
75961;SHT30;64644;48.914;2.254;2023-04-01T16:14:31;15.51;59.29
75961;SHT30;64644;48.914;2.254;2023-04-01T16:17:26;15.48;58.99
75961;SHT30;64644;48.914;2.254;2023-04-01T16:30:35;15.32;59.46
75961;SHT30;64644;48.914;2.254;2023-04-01T16:33:24;15.32;59.43
75961;SHT30;64644;48.914;2.254;2023-04-01T16:41:18;15.23;59.96
75961;SHT30;64644;48.914;2.254;2023-04-01T16:43:55;15.24;59.56
75961;SHT30;64644;48.914;2.254;2023-04-01T16:46:29;15.19;59.30
75961;SHT30;64644;48.914;2.254;2023-04-01T16:57:11;15.19;59.13
75961;SHT30;64644;48.914;2.254;2023-04-01T16:59:47;15.16;59.39
75961;SHT30;64644;48.914;2.254;2023-04-01T17:02:26;15.11;59.23
75961;SHT30;64644;48.914;2.254;2023-04-01T17:05:13;15.04;59.12
75961;SHT30;64644;48.914;2.254;2023-04-01T17:18:32;14.57;61.25
75961;SHT30;64644;48.914;2.254;2023-04-01T17:24:04;14.45;62.94
75961;SHT30;64644;48.914;2.254;2023-04-01T17:30:02;14.38;63.49
75961;SHT30;64644;48.914;2.254;2023-04-01T17:35:34;14.33;63.64
75961;SHT30;64644;48.914;2.254;2023-04-01T17:38:17;14.31;63.28
75961;SHT30;64644;48.914;2.254;2023-04-01T17:41:10;14.27;63.88
75961;SHT30;64644;48.914;2.254;2023-04-01T17:44:05;14.27;64.07
75961;SHT30;64644;48.914;2.254;2023-04-01T17:46:50;14.23;64.13
75961;SHT30;64644;48.914;2.254;2023-04-01T17:49:28;14.24;64.37
75961;SHT30;64644;48.914;2.254;2023-04-01T18:03:22;14.16;65.34
75961;SHT30;64644;48.914;2.254;2023-04-01T18:22:41;14.07;64.91
75961;SHT30;64644;48.914;2.254;2023-04-01T18:27:40;14.09;65.59
75961;SHT30;64644;48.914;2.254;2023-04-01T18:33:18;14.05;65.65
75961;SHT30;64644;48.914;2.254;2023-04-01T18:35:54;14.00;65.96
75961;SHT30;64644;48.914;2.254;2023-04-01T18:38:32;14.02;66.68
75961;SHT30;64644;48.914;2.254;2023-04-01T18:41:12;14.02;66.14
75961;SHT30;64644;48.914;2.254;2023-04-01T18:44:03;14.02;66.19
75961;SHT30;64644;48.914;2.254;2023-04-01T18:46:55;14.05;66.53
75961;SHT30;64644;48.914;2.254;2023-04-01T18:49:29;14.02;65.49
75961;SHT30;64644;48.914;2.254;2023-04-01T18:52:07;14.02;65.32
75961;SHT30;64644;48.914;2.254;2023-04-01T19:00:19;13.99;65.80
75961;SHT30;64644;48.914;2.254;2023-04-01T19:03:00;13.95;65.69
75961;SHT30;64644;48.914;2.254;2023-04-01T19:05:36;13.95;65.48
75961;SHT30;64644;48.914;2.254;2023-04-01T19:08:22;13.92;66.07
75961;SHT30;64644;48.914;2.254;2023-04-01T19:11:07;13.92;65.80
75961;SHT30;64644;48.914;2.254;2023-04-01T19:24:42;13.92;65.68
75961;SHT30;64644;48.914;2.254;2023-04-01T19:27:29;13.90;65.70
75961;SHT30;64644;48.914;2.254;2023-04-01T19:35:29;13.89;65.66
75961;SHT30;64644;48.914;2.254;2023-04-01T19:50:25;13.85;65.68
75961;SHT30;64644;48.914;2.254;2023-04-01T19:52:37;13.86;66.03
75961;SHT30;64644;48.914;2.254;2023-04-01T19:58:21;13.86;66.04
75961;SHT30;64644;48.914;2.254;2023-04-01T20:00:53;13.86;66.02
75961;SHT30;64644;48.914;2.254;2023-04-01T20:06:24;13.89;66.06
75961;SHT30;64644;48.914;2.254;2023-04-01T20:14:45;13.85;65.97
75961;SHT30;64644;48.914;2.254;2023-04-01T20:17:16;13.83;66.27
75961;SHT30;64644;48.914;2.254;2023-04-01T20:19:50;13.85;66.22
75961;SHT30;64644;48.914;2.254;2023-04-01T20:25:20;13.82;65.81
75961;SHT30;64644;48.914;2.254;2023-04-01T20:28:20;13.82;65.52
75961;SHT30;64644;48.914;2.254;2023-04-01T20:49:55;13.78;65.32
75961;SHT30;64644;48.914;2.254;2023-04-01T20:52:32;13.76;65.22
75961;SHT30;64644;48.914;2.254;2023-04-01T20:55:24;13.73;65.22
75961;SHT30;64644;48.914;2.254;2023-04-01T21:05:46;13.75;65.23
75961;SHT30;64644;48.914;2.254;2023-04-01T21:11:11;13.72;65.05
75961;SHT30;64644;48.914;2.254;2023-04-01T21:13:56;13.72;64.86
75961;SHT30;64644;48.914;2.254;2023-04-01T21:19:16;13.71;65.00
75961;SHT30;64644;48.914;2.254;2023-04-01T21:33:13;13.64;65.79
75961;SHT30;64644;48.914;2.254;2023-04-01T21:42:01;13.57;65.32
75961;SHT30;64644;48.914;2.254;2023-04-01T22:06:59;13.47;65.25
75961;SHT30;64644;48.914;2.254;2023-04-01T22:09:33;13.43;65.11
75961;SHT30;64644;48.914;2.254;2023-04-01T22:12:19;13.41;65.22
75961;SHT30;64644;48.914;2.254;2023-04-01T22:17:34;13.37;65.51
75961;SHT30;64644;48.914;2.254;2023-04-01T22:20:36;13.37;65.27
75961;SHT30;64644;48.914;2.254;2023-04-01T22:23:37;13.40;65.30
75961;SHT30;64644;48.914;2.254;2023-04-01T22:29:19;13.38;65.28
75961;SHT30;64644;48.914;2.254;2023-04-01T22:31:55;13.38;65.02
75961;SHT30;64644;48.914;2.254;2023-04-01T22:37:49;13.40;65.28
75961;SHT30;64644;48.914;2.254;2023-04-01T22:43:06;13.36;65.52
75961;SHT30;64644;48.914;2.254;2023-04-01T22:53:46;13.31;65.44
75961;SHT30;64644;48.914;2.254;2023-04-01T22:56:27;13.30;65.56
75961;SHT30;64644;48.914;2.254;2023-04-01T22:59:06;13.30;65.63
75961;SHT30;64644;48.914;2.254;2023-04-01T23:01:39;13.28;65.51
75961;SHT30;64644;48.914;2.254;2023-04-01T23:04:05;13.27;65.54
75961;SHT30;64644;48.914;2.254;2023-04-01T23:06:38;13.27;65.55
75961;SHT30;64644;48.914;2.254;2023-04-01T23:09:14;13.24;65.31
75961;SHT30;64644;48.914;2.254;2023-04-01T23:11:45;13.26;65.48
75961;SHT30;64644;48.914;2.254;2023-04-01T23:14:31;13.21;65.46
75961;SHT30;64644;48.914;2.254;2023-04-01T23:17:11;13.26;65.44
75961;SHT30;64644;48.914;2.254;2023-04-01T23:35:48;13.19;65.45
75961;SHT30;64644;48.914;2.254;2023-04-01T23:38:15;13.21;65.20
75961;SHT30;64644;48.914;2.254;2023-04-01T23:40:41;13.21;65.05
75961;SHT30;64644;48.914;2.254;2023-04-01T23:43:14;13.20;65.25
75961;SHT30;64644;48.914;2.254;2023-04-01T23:45:42;13.23;65.00
75961;SHT30;64644;48.914;2.254;2023-04-01T23:48:13;13.24;64.86
75961;SHT30;64644;48.914;2.254;2023-04-01T23:50:40;13.23;64.73
75961;SHT30;64644;48.914;2.254;2023-04-01T23:53:35;13.21;64.80
75961;SHT30;64644;48.914;2.254;2023-04-01T23:56:02;13.23;64.72
75961;SHT30;64644;48.914;2.254;2023-04-01T23:58:42;13.23;64.48
